Soaring Guidance
Issued by NWS Reno, NV

Home | Current Version | Previous Version | Text Only | Print | Product List | Glossary On
Versions: 1 2 3 4 5 6 7 8 9 10 11 12 13 14
000
UXUS97 KREV 301351
SRGREV

SOARING FORECAST
NATIONAL WEATHER SERVICE - RENO NV
700 AM PDT SUN APR 30 2017

THIS SOARING FORECAST IS FOR THE EASTERN SIERRA AND WESTERN NEVADA
WITH SPECIFIC INDICES FOR THE GREATER RENO AREA.

THIS FORECAST IS PREPARED DAILY BY 700 AM AND IS NOT UPDATED.

FOR CURRENT FLIGHT CONDITIONS...FORECASTS...AND ADVISORIES...ACCESS
YOUR LOCAL BRIEFING OUTLET OR FLIGHT SERVICE STATION.

*******************************************************************
FORECASTED LOCAL INDICES FOR RENO:        TODAY     YESTERDAY
FORECASTED MAX TEMP AT RENO (DEG F).....     76          67
FORECASTED TRIGGER TEMPERATURE (DEG F)..     61          45
   EXCEEDED YESTERDAY BY 855 AM PDT
FORECASTED MAXIMUM ALTITUDE (FT MSL)....  13100       12900
FORECASTED SOARING INDEX (FPM)..........    603         477
FORECASTED K-INDEX.........VALID 18Z....     16         -12
FORECASTED K-INDEX.........VALID 00Z....     29           5
FORECASTED LIFTED INDEX....VALID 18Z....      6           9
FORECASTED LIFTED INDEX....VALID 00Z....      3           8

AFTERNOON WINDS ALOFT FORECAST
MSL (FT) WIND/TEMP
9000  2918/+06
10000 2918/+03
12000 3118/-01
14000 3123/-04
16000 3130/-08
18000 3249/-12
24000 3142/-23
30000 2940/-39
34000 3037/-49
39000 3249/-59

SLIDE MOUNTAIN DATA:
     DATE       TIME     TEMP  DEWPT   RH         WIND (MPH)
                        (F)   (F)           | DIR  SPEED GUST
2017-04-30    05:20      38    15     25    | 274    5    8
2017-04-30    05:00      38    16     26    | 193    7   10
2017-04-30    04:50      40    12     19    | 211    3    8
2017-04-30    04:30      39    12     20    | 328    1    5

RENO TAF FORECAST:
KRNO 301121Z 3012/0112 VRB04KT P6SM SKC
     FM302200 32010G20KT P6SM FEW080 SCT250
     FM010500 34009KT P6SM SCT250

CARSON CITY TAF FORECAST:
KCXP 301121Z 3012/0112 VRB04KT P6SM SKC
     FM302200 29010G18KT P6SM FEW080 SCT250
     FM010400 30007KT P6SM SCT250

OUTLOOK FOR THE RENO-CARSON CITY-MINDEN AREA:
.MONDAY...SUNNY. HIGHS 70 TO 75. NORTH WINDS UP TO 10 MPH.

SUNRISE AND SUNSET
APRIL 30 2017.........SUNRISE   601 AM PDT   SUNSET   752 PM PDT
MAY  1 2017...........SUNRISE   600 AM PDT   SUNSET   753 PM PDT


USA.gov is the U.S. government's official web portal to all federal, state and local government web resources and services.